sensor_id;sensor_type;location;lat;lon;timestamp;temperature;humidity
16134;DHT22;8172;45.018;5.972;2022-09-09T00:06:54;15.40;65.20
16134;DHT22;8172;45.018;5.972;2022-09-09T00:12:02;15.40;65.20
16134;DHT22;8172;45.018;5.972;2022-09-09T00:17:12;15.40;65.30
16134;DHT22;8172;45.018;5.972;2022-09-09T00:22:22;15.40;65.40
16134;DHT22;8172;45.018;5.972;2022-09-09T00:32:40;15.40;65.50
16134;DHT22;8172;45.018;5.972;2022-09-09T00:37:50;15.50;65.60
16134;DHT22;8172;45.018;5.972;2022-09-09T00:43:06;15.50;65.90
16134;DHT22;8172;45.018;5.972;2022-09-09T00:48:10;15.50;65.60
16134;DHT22;8172;45.018;5.972;2022-09-09T00:58:28;15.60;65.60
16134;DHT22;8172;45.018;5.972;2022-09-09T01:03:37;15.70;65.50
16134;DHT22;8172;45.018;5.972;2022-09-09T01:14:03;15.70;65.60
16134;DHT22;8172;45.018;5.972;2022-09-09T01:19:09;15.70;65.60
16134;DHT22;8172;45.018;5.972;2022-09-09T01:29:27;15.60;65.50
16134;DHT22;8172;45.018;5.972;2022-09-09T01:34:38;15.50;65.60
16134;DHT22;8172;45.018;5.972;2022-09-09T01:39:45;15.50;65.70
16134;DHT22;8172;45.018;5.972;2022-09-09T01:44:53;15.50;65.70
16134;DHT22;8172;45.018;5.972;2022-09-09T01:50:02;15.40;65.70
16134;DHT22;8172;45.018;5.972;2022-09-09T01:55:10;15.40;65.90
16134;DHT22;8172;45.018;5.972;2022-09-09T02:00:18;15.40;65.90
16134;DHT22;8172;45.018;5.972;2022-09-09T02:20:57;15.30;65.80
16134;DHT22;8172;45.018;5.972;2022-09-09T02:26:06;15.20;65.80
16134;DHT22;8172;45.018;5.972;2022-09-09T02:31:17;15.10;65.80
16134;DHT22;8172;45.018;5.972;2022-09-09T02:36:28;15.00;65.80
16134;DHT22;8172;45.018;5.972;2022-09-09T02:41:38;15.00;66.00
16134;DHT22;8172;45.018;5.972;2022-09-09T02:57:08;15.00;66.00
16134;DHT22;8172;45.018;5.972;2022-09-09T03:02:15;15.00;66.00
16134;DHT22;8172;45.018;5.972;2022-09-09T03:07:24;15.00;66.10
16134;DHT22;8172;45.018;5.972;2022-09-09T03:12:32;15.00;66.20
16134;DHT22;8172;45.018;5.972;2022-09-09T03:17:40;14.90;66.30
16134;DHT22;8172;45.018;5.972;2022-09-09T03:22:47;14.90;66.30
16134;DHT22;8172;45.018;5.972;2022-09-09T03:27:56;14.90;66.30
16134;DHT22;8172;45.018;5.972;2022-09-09T03:33:03;14.80;66.30
16134;DHT22;8172;45.018;5.972;2022-09-09T03:38:11;14.80;66.50
16134;DHT22;8172;45.018;5.972;2022-09-09T03:43:18;14.80;66.50
16134;DHT22;8172;45.018;5.972;2022-09-09T03:48:28;14.70;66.50
16134;DHT22;8172;45.018;5.972;2022-09-09T03:53:36;14.70;66.60
16134;DHT22;8172;45.018;5.972;2022-09-09T03:58:44;14.70;66.70
16134;DHT22;8172;45.018;5.972;2022-09-09T04:03:51;14.60;66.80
16134;DHT22;8172;45.018;5.972;2022-09-09T04:08:58;14.60;66.90
16134;DHT22;8172;45.018;5.972;2022-09-09T04:14:08;14.60;67.00
16134;DHT22;8172;45.018;5.972;2022-09-09T04:19:16;14.60;66.70
16134;DHT22;8172;45.018;5.972;2022-09-09T04:24:23;14.60;66.70
16134;DHT22;8172;45.018;5.972;2022-09-09T04:29:32;14.50;66.80
16134;DHT22;8172;45.018;5.972;2022-09-09T04:34:39;14.50;67.00
16134;DHT22;8172;45.018;5.972;2022-09-09T04:39:47;14.50;67.00
16134;DHT22;8172;45.018;5.972;2022-09-09T04:44:54;14.40;67.10
16134;DHT22;8172;45.018;5.972;2022-09-09T04:50:01;14.50;67.10
16134;DHT22;8172;45.018;5.972;2022-09-09T04:55:08;14.40;67.00
16134;DHT22;8172;45.018;5.972;2022-09-09T05:00:16;14.40;66.70
16134;DHT22;8172;45.018;5.972;2022-09-09T05:05:23;14.30;66.80
16134;DHT22;8172;45.018;5.972;2022-09-09T05:10:32;14.30;66.60
16134;DHT22;8172;45.018;5.972;2022-09-09T05:15:39;14.30;66.70
16134;DHT22;8172;45.018;5.972;2022-09-09T05:20:49;14.20;66.40
16134;DHT22;8172;45.018;5.972;2022-09-09T05:25:57;14.10;66.80
16134;DHT22;8172;45.018;5.972;2022-09-09T05:31:07;14.10;66.80
16134;DHT22;8172;45.018;5.972;2022-09-09T05:36:17;14.00;67.00
16134;DHT22;8172;45.018;5.972;2022-09-09T05:41:26;14.00;67.00
16134;DHT22;8172;45.018;5.972;2022-09-09T05:46:35;14.10;67.00
16134;DHT22;8172;45.018;5.972;2022-09-09T05:51:42;14.00;66.60
16134;DHT22;8172;45.018;5.972;2022-09-09T05:56:51;14.00;66.80
16134;DHT22;8172;45.018;5.972;2022-09-09T06:02:00;14.10;66.80
16134;DHT22;8172;45.018;5.972;2022-09-09T06:07:09;14.10;66.80
16134;DHT22;8172;45.018;5.972;2022-09-09T06:12:16;14.10;66.80
16134;DHT22;8172;45.018;5.972;2022-09-09T06:17:23;14.10;67.00
16134;DHT22;8172;45.018;5.972;2022-09-09T06:22:30;14.10;67.40
16134;DHT22;8172;45.018;5.972;2022-09-09T06:27:37;14.20;67.40
16134;DHT22;8172;45.018;5.972;2022-09-09T06:32:44;14.30;67.50
16134;DHT22;8172;45.018;5.972;2022-09-09T06:37:52;14.40;67.80
16134;DHT22;8172;45.018;5.972;2022-09-09T06:43:00;14.50;68.10
16134;DHT22;8172;45.018;5.972;2022-09-09T06:48:09;14.60;68.30
16134;DHT22;8172;45.018;5.972;2022-09-09T06:53:18;14.70;67.90
16134;DHT22;8172;45.018;5.972;2022-09-09T06:58:25;14.70;67.30
16134;DHT22;8172;45.018;5.972;2022-09-09T07:03:34;14.60;67.70
16134;DHT22;8172;45.018;5.972;2022-09-09T07:08:41;14.60;67.70
16134;DHT22;8172;45.018;5.972;2022-09-09T07:13:50;14.70;68.10
16134;DHT22;8172;45.018;5.972;2022-09-09T07:18:57;14.80;68.30
16134;DHT22;8172;45.018;5.972;2022-09-09T07:24:05;14.80;67.60
16134;DHT22;8172;45.018;5.972;2022-09-09T07:29:14;14.70;67.60
16134;DHT22;8172;45.018;5.972;2022-09-09T07:34:23;14.60;68.10
16134;DHT22;8172;45.018;5.972;2022-09-09T07:39:30;14.50;68.00
16134;DHT22;8172;45.018;5.972;2022-09-09T07:44:38;14.50;68.30
16134;DHT22;8172;45.018;5.972;2022-09-09T07:49:47;14.50;68.30
16134;DHT22;8172;45.018;5.972;2022-09-09T07:54:57;14.50;68.50
16134;DHT22;8172;45.018;5.972;2022-09-09T08:00:06;14.60;68.90
16134;DHT22;8172;45.018;5.972;2022-09-09T08:05:15;14.80;68.80
16134;DHT22;8172;45.018;5.972;2022-09-09T08:10:25;15.10;68.30
16134;DHT22;8172;45.018;5.972;2022-09-09T08:15:33;15.30;68.00
16134;DHT22;8172;45.018;5.972;2022-09-09T08:20:41;15.50;67.50
16134;DHT22;8172;45.018;5.972;2022-09-09T08:25:48;15.60;67.10
16134;DHT22;8172;45.018;5.972;2022-09-09T08:36:10;15.80;67.20
16134;DHT22;8172;45.018;5.972;2022-09-09T08:51:39;16.50;66.60
16134;DHT22;8172;45.018;5.972;2022-09-09T08:56:47;16.70;66.40
16134;DHT22;8172;45.018;5.972;2022-09-09T09:02:08;16.80;66.40
16134;DHT22;8172;45.018;5.972;2022-09-09T09:12:22;16.90;65.90
16134;DHT22;8172;45.018;5.972;2022-09-09T09:17:32;17.00;65.50
16134;DHT22;8172;45.018;5.972;2022-09-09T09:33:06;16.70;62.60
16134;DHT22;8172;45.018;5.972;2022-09-09T09:38:16;16.70;62.10
16134;DHT22;8172;45.018;5.972;2022-09-09T09:43:29;16.80;62.90
16134;DHT22;8172;45.018;5.972;2022-09-09T09:48:38;17.00;61.50
16134;DHT22;8172;45.018;5.972;2022-09-09T09:53:46;17.10;58.30
16134;DHT22;8172;45.018;5.972;2022-09-09T09:58:55;17.20;57.20
16134;DHT22;8172;45.018;5.972;2022-09-09T10:19:36;17.70;57.20
16134;DHT22;8172;45.018;5.972;2022-09-09T10:24:49;17.90;58.20
16134;DHT22;8172;45.018;5.972;2022-09-09T10:45:29;17.90;58.50
16134;DHT22;8172;45.018;5.972;2022-09-09T10:50:42;18.00;58.50
16134;DHT22;8172;45.018;5.972;2022-09-09T10:55:52;18.10;57.90
16134;DHT22;8172;45.018;5.972;2022-09-09T11:01:03;18.10;57.60
16134;DHT22;8172;45.018;5.972;2022-09-09T11:06:13;18.00;57.70
16134;DHT22;8172;45.018;5.972;2022-09-09T11:11:25;18.10;56.90
16134;DHT22;8172;45.018;5.972;2022-09-09T11:16:34;18.10;56.30
16134;DHT22;8172;45.018;5.972;2022-09-09T11:42:22;18.50;55.30
16134;DHT22;8172;45.018;5.972;2022-09-09T11:47:31;18.50;54.30
16134;DHT22;8172;45.018;5.972;2022-09-09T11:52:41;18.50;53.80
16134;DHT22;8172;45.018;5.972;2022-09-09T11:57:56;18.60;54.00
16134;DHT22;8172;45.018;5.972;2022-09-09T12:02:59;18.70;54.20
16134;DHT22;8172;45.018;5.972;2022-09-09T12:08:08;18.80;52.60
16134;DHT22;8172;45.018;5.972;2022-09-09T12:13:17;18.70;52.50
16134;DHT22;8172;45.018;5.972;2022-09-09T12:33:52;18.90;51.40
16134;DHT22;8172;45.018;5.972;2022-09-09T12:39:09;19.00;51.40
16134;DHT22;8172;45.018;5.972;2022-09-09T12:44:10;19.10;51.30
16134;DHT22;8172;45.018;5.972;2022-09-09T12:49:27;19.20;50.60
16134;DHT22;8172;45.018;5.972;2022-09-09T12:54:27;19.30;50.20
16134;DHT22;8172;45.018;5.972;2022-09-09T12:59:37;19.30;49.30
16134;DHT22;8172;45.018;5.972;2022-09-09T13:04:45;19.30;49.30
16134;DHT22;8172;45.018;5.972;2022-09-09T13:09:52;19.40;49.30
16134;DHT22;8172;45.018;5.972;2022-09-09T13:14:59;19.60;49.00
16134;DHT22;8172;45.018;5.972;2022-09-09T13:20:16;19.80;48.70
16134;DHT22;8172;45.018;5.972;2022-09-09T13:25:21;19.90;48.50
16134;DHT22;8172;45.018;5.972;2022-09-09T13:30:33;20.00;48.70
16134;DHT22;8172;45.018;5.972;2022-09-09T13:41:00;20.00;47.10
16134;DHT22;8172;45.018;5.972;2022-09-09T13:46:20;20.00;46.50
16134;DHT22;8172;45.018;5.972;2022-09-09T13:56:23;20.10;46.80
16134;DHT22;8172;45.018;5.972;2022-09-09T14:01:31;20.20;47.00
16134;DHT22;8172;45.018;5.972;2022-09-09T14:06:40;20.40;46.30
16134;DHT22;8172;45.018;5.972;2022-09-09T14:11:48;20.30;44.90
16134;DHT22;8172;45.018;5.972;2022-09-09T14:16:55;20.30;45.80
16134;DHT22;8172;45.018;5.972;2022-09-09T14:22:03;20.30;44.40
16134;DHT22;8172;45.018;5.972;2022-09-09T14:27:10;20.20;44.70
16134;DHT22;8172;45.018;5.972;2022-09-09T14:32:18;20.20;45.30
16134;DHT22;8172;45.018;5.972;2022-09-09T14:37:25;20.20;45.60
16134;DHT22;8172;45.018;5.972;2022-09-09T14:42:34;20.20;46.10
16134;DHT22;8172;45.018;5.972;2022-09-09T14:47:41;20.20;47.00
16134;DHT22;8172;45.018;5.972;2022-09-09T14:52:48;20.30;46.80
16134;DHT22;8172;45.018;5.972;2022-09-09T14:57:56;20.20;46.40
16134;DHT22;8172;45.018;5.972;2022-09-09T15:03:04;20.10;46.70
16134;DHT22;8172;45.018;5.972;2022-09-09T15:08:11;19.90;46.90
16134;DHT22;8172;45.018;5.972;2022-09-09T15:13:19;19.70;46.60
16134;DHT22;8172;45.018;5.972;2022-09-09T15:18:26;19.60;47.00
16134;DHT22;8172;45.018;5.972;2022-09-09T15:23:35;19.50;46.90
16134;DHT22;8172;45.018;5.972;2022-09-09T15:28:44;19.30;47.10
16134;DHT22;8172;45.018;5.972;2022-09-09T15:33:53;19.20;47.40
16134;DHT22;8172;45.018;5.972;2022-09-09T15:39:05;19.10;46.60
16134;DHT22;8172;45.018;5.972;2022-09-09T15:44:13;18.70;46.50
16134;DHT22;8172;45.018;5.972;2022-09-09T15:49:22;18.50;47.00
16134;DHT22;8172;45.018;5.972;2022-09-09T15:54:34;18.30;47.50
16134;DHT22;8172;45.018;5.972;2022-09-09T15:59:41;18.20;47.60
16134;DHT22;8172;45.018;5.972;2022-09-09T16:04:49;18.20;48.00
16134;DHT22;8172;45.018;5.972;2022-09-09T16:09:57;18.20;48.40
16134;DHT22;8172;45.018;5.972;2022-09-09T16:15:04;18.20;48.90
16134;DHT22;8172;45.018;5.972;2022-09-09T16:20:12;18.10;49.40
16134;DHT22;8172;45.018;5.972;2022-09-09T16:25:20;18.10;49.70
16134;DHT22;8172;45.018;5.972;2022-09-09T16:30:26;18.00;48.80
16134;DHT22;8172;45.018;5.972;2022-09-09T16:35:36;18.00;48.20
16134;DHT22;8172;45.018;5.972;2022-09-09T16:40:44;17.90;47.70
16134;DHT22;8172;45.018;5.972;2022-09-09T16:45:51;17.90;47.60
16134;DHT22;8172;45.018;5.972;2022-09-09T16:51:03;17.80;47.20
16134;DHT22;8172;45.018;5.972;2022-09-09T16:56:10;17.80;47.30
16134;DHT22;8172;45.018;5.972;2022-09-09T17:01:18;17.80;47.10
16134;DHT22;8172;45.018;5.972;2022-09-09T17:06:25;17.80;47.00
16134;DHT22;8172;45.018;5.972;2022-09-09T17:11:33;17.80;47.10
16134;DHT22;8172;45.018;5.972;2022-09-09T17:16:41;17.70;46.80
16134;DHT22;8172;45.018;5.972;2022-09-09T17:21:48;17.70;47.00
16134;DHT22;8172;45.018;5.972;2022-09-09T17:26:57;17.70;46.70
16134;DHT22;8172;45.018;5.972;2022-09-09T17:32:05;17.70;46.60
16134;DHT22;8172;45.018;5.972;2022-09-09T17:37:13;17.60;46.60
16134;DHT22;8172;45.018;5.972;2022-09-09T17:42:20;17.60;46.70
16134;DHT22;8172;45.018;5.972;2022-09-09T17:47:28;17.60;46.70
16134;DHT22;8172;45.018;5.972;2022-09-09T17:52:36;17.60;46.60
16134;DHT22;8172;45.018;5.972;2022-09-09T17:57:43;17.50;47.20
16134;DHT22;8172;45.018;5.972;2022-09-09T18:02:52;17.50;47.30
16134;DHT22;8172;45.018;5.972;2022-09-09T18:07:59;17.50;47.80
16134;DHT22;8172;45.018;5.972;2022-09-09T18:13:06;17.40;48.20
16134;DHT22;8172;45.018;5.972;2022-09-09T18:18:14;17.30;48.60
16134;DHT22;8172;45.018;5.972;2022-09-09T18:23:22;17.20;48.70
16134;DHT22;8172;45.018;5.972;2022-09-09T18:28:29;17.10;48.70
16134;DHT22;8172;45.018;5.972;2022-09-09T18:33:38;17.00;49.10
16134;DHT22;8172;45.018;5.972;2022-09-09T18:38:47;16.90;49.30
16134;DHT22;8172;45.018;5.972;2022-09-09T18:43:57;16.80;49.50
16134;DHT22;8172;45.018;5.972;2022-09-09T18:49:05;16.70;49.60
16134;DHT22;8172;45.018;5.972;2022-09-09T18:59:22;16.40;50.10
16134;DHT22;8172;45.018;5.972;2022-09-09T19:04:30;16.40;50.30
16134;DHT22;8172;45.018;5.972;2022-09-09T19:09:38;16.30;50.30
16134;DHT22;8172;45.018;5.972;2022-09-09T19:14:45;16.20;50.40
16134;DHT22;8172;45.018;5.972;2022-09-09T19:19:52;16.20;50.40
16134;DHT22;8172;45.018;5.972;2022-09-09T19:24:59;16.10;50.90
16134;DHT22;8172;45.018;5.972;2022-09-09T19:30:09;16.10;51.20
16134;DHT22;8172;45.018;5.972;2022-09-09T19:35:16;16.10;51.10
16134;DHT22;8172;45.018;5.972;2022-09-09T19:40:24;16.10;51.50
16134;DHT22;8172;45.018;5.972;2022-09-09T19:45:32;16.10;51.60
16134;DHT22;8172;45.018;5.972;2022-09-09T19:50:39;16.10;51.40
16134;DHT22;8172;45.018;5.972;2022-09-09T19:55:48;16.10;51.40
16134;DHT22;8172;45.018;5.972;2022-09-09T20:06:11;16.10;51.80
16134;DHT22;8172;45.018;5.972;2022-09-09T20:11:18;16.10;52.10
16134;DHT22;8172;45.018;5.972;2022-09-09T20:16:28;16.10;52.50
16134;DHT22;8172;45.018;5.972;2022-09-09T20:21:39;16.10;52.80
16134;DHT22;8172;45.018;5.972;2022-09-09T20:26:47;16.10;52.90
16134;DHT22;8172;45.018;5.972;2022-09-09T20:31:54;16.10;52.70
16134;DHT22;8172;45.018;5.972;2022-09-09T20:37:02;16.10;53.10
16134;DHT22;8172;45.018;5.972;2022-09-09T20:42:09;16.10;52.80
16134;DHT22;8172;45.018;5.972;2022-09-09T20:47:17;16.10;53.30
16134;DHT22;8172;45.018;5.972;2022-09-09T20:52:25;16.10;53.50
16134;DHT22;8172;45.018;5.972;2022-09-09T20:57:32;16.10;53.70
16134;DHT22;8172;45.018;5.972;2022-09-09T21:02:39;16.10;53.10
16134;DHT22;8172;45.018;5.972;2022-09-09T21:07:46;16.00;53.80
16134;DHT22;8172;45.018;5.972;2022-09-09T21:12:53;16.10;54.20
16134;DHT22;8172;45.018;5.972;2022-09-09T21:18:00;16.10;54.30
16134;DHT22;8172;45.018;5.972;2022-09-09T21:23:08;16.10;54.30
16134;DHT22;8172;45.018;5.972;2022-09-09T21:28:16;16.10;54.00
16134;DHT22;8172;45.018;5.972;2022-09-09T21:33:25;16.10;54.10
16134;DHT22;8172;45.018;5.972;2022-09-09T21:38:33;16.10;54.10
16134;DHT22;8172;45.018;5.972;2022-09-09T21:43:42;16.20;53.80
16134;DHT22;8172;45.018;5.972;2022-09-09T21:48:50;16.20;53.70
16134;DHT22;8172;45.018;5.972;2022-09-09T21:53:57;16.20;53.90
16134;DHT22;8172;45.018;5.972;2022-09-09T21:59:04;16.20;54.00
16134;DHT22;8172;45.018;5.972;2022-09-09T22:04:13;16.20;54.60
16134;DHT22;8172;45.018;5.972;2022-09-09T22:09:21;16.20;54.60
16134;DHT22;8172;45.018;5.972;2022-09-09T22:14:28;16.20;54.80
16134;DHT22;8172;45.018;5.972;2022-09-09T22:19:35;16.20;54.60
16134;DHT22;8172;45.018;5.972;2022-09-09T22:24:42;16.30;54.60
16134;DHT22;8172;45.018;5.972;2022-09-09T22:29:49;16.20;54.50
16134;DHT22;8172;45.018;5.972;2022-09-09T22:34:56;16.20;54.80
16134;DHT22;8172;45.018;5.972;2022-09-09T22:40:04;16.20;54.90
16134;DHT22;8172;45.018;5.972;2022-09-09T22:45:11;16.10;55.20
16134;DHT22;8172;45.018;5.972;2022-09-09T22:50:18;16.10;55.40
16134;DHT22;8172;45.018;5.972;2022-09-09T22:55:25;16.00;55.40
16134;DHT22;8172;45.018;5.972;2022-09-09T23:00:32;16.00;55.60
16134;DHT22;8172;45.018;5.972;2022-09-09T23:05:40;15.90;55.70
16134;DHT22;8172;45.018;5.972;2022-09-09T23:10:47;15.90;55.90
16134;DHT22;8172;45.018;5.972;2022-09-09T23:15:54;15.80;56.10
16134;DHT22;8172;45.018;5.972;2022-09-09T23:21:01;15.80;56.20
16134;DHT22;8172;45.018;5.972;2022-09-09T23:26:12;15.80;56.50
16134;DHT22;8172;45.018;5.972;2022-09-09T23:31:21;15.80;56.70
16134;DHT22;8172;45.018;5.972;2022-09-09T23:36:30;15.80;56.80
16134;DHT22;8172;45.018;5.972;2022-09-09T23:41:37;15.80;57.20
16134;DHT22;8172;45.018;5.972;2022-09-09T23:46:45;15.80;57.20
16134;DHT22;8172;45.018;5.972;2022-09-09T23:51:52;15.80;57.20
16134;DHT22;8172;45.018;5.972;2022-09-09T23:57:00;15.80;57.30
